Time;durP1;ratioP1;P1;durP2;ratioP2;P2;SDS_P1;SDS_P2;PMS_P1;PMS_P2;Temp;Humidity;BMP_temperature;BMP_pressure;BME280_temperature;BME280_humidity;BME280_pressure;Samples;Min_cycle;Max_cycle;Signal;HPM_P1;HPM_P2
2023/06/01 00:02:24;;;;;;;;;;;;;;;11.86;56.85;98838.92;437337;1252;108527;-43
2023/06/01 00:32:39;;;;;;;;;;;;;;;11.44;58.04;98819.98;436895;1253;107574;-42
2023/06/01 00:42:45;;;;;;;;;;;;;;;11.37;58.06;98813.67;436469;1253;96660;-43
2023/06/01 00:52:51;;;;;;;;;;;;;;;11.28;58.35;98814.63;437286;1252;109793;-43
2023/06/01 01:13:02;;;;;;;;;;;;;;;11.09;58.55;98799.83;436456;1251;117320;-42
2023/06/01 01:23:24;;;;;;;;;;;;;;;11.10;58.45;98796.00;436362;1252;109529;-43
2023/06/01 01:33:30;;;;;;;;;;;;;;;11.16;58.36;98793.83;437718;1252;107589;-43
2023/06/01 02:03:58;;;;;;;;;;;;;;;10.99;58.47;98774.67;436006;1252;97905;-42
2023/06/01 02:14:04;;;;;;;;;;;;;;;10.82;58.41;98769.85;436486;1254;109707;-43
2023/06/01 02:24:10;;;;;;;;;;;;;;;10.67;58.51;98764.27;436130;1254;107977;-43
2023/06/01 02:44:21;;;;;;;;;;;;;;;10.45;58.84;98766.11;436116;1248;109859;-43
2023/06/01 02:54:26;;;;;;;;;;;;;;;10.49;59.14;98758.05;436063;1253;109435;-42
2023/06/01 03:04:32;;;;;;;;;;;;;;;10.50;59.41;98755.48;435940;1248;97491;-43
2023/06/01 03:14:38;;;;;;;;;;;;;;;10.65;59.49;98751.94;436033;1252;109432;-42
2023/06/01 03:24:47;;;;;;;;;;;;;;;12.33;59.07;98748.21;436083;1247;107418;-42
2023/06/01 03:34:54;;;;;;;;;;;;;;;14.89;57.46;98740.95;435905;1248;97899;-43
2023/06/01 03:44:59;;;;;;;;;;;;;;;17.09;55.36;98735.33;436065;1250;111153;-43
2023/06/01 03:55:08;;;;;;;;;;;;;;;18.28;53.61;98713.35;435723;1247;532062;-42
2023/06/01 04:15:20;;;;;;;;;;;;;;;20.99;50.51;98705.52;436113;1252;110129;-42
2023/06/01 04:25:25;;;;;;;;;;;;;;;21.88;48.83;98706.27;435906;1252;109887;-43
2023/06/01 04:35:30;;;;;;;;;;;;;;;22.51;47.86;98695.70;436083;1252;96629;-44
2023/06/01 04:45:38;;;;;;;;;;;;;;;23.16;46.71;98699.19;435923;1252;110813;-41
2023/06/01 05:05:49;;;;;;;;;;;;;;;24.22;45.22;98695.90;436024;1252;96673;-43
2023/06/01 05:15:55;;;;;;;;;;;;;;;24.26;44.50;98695.75;436100;1252;110789;-46
2023/06/01 05:36:08;;;;;;;;;;;;;;;24.02;44.10;98681.93;436285;1252;97483;-43
2023/06/01 05:46:14;;;;;;;;;;;;;;;24.44;43.87;98672.50;436013;1262;110378;-41
2023/06/01 05:56:20;;;;;;;;;;;;;;;25.01;43.16;98671.95;436165;1252;107928;-43
2023/06/01 06:06:25;;;;;;;;;;;;;;;25.27;42.79;98668.74;435992;1252;96598;-43
2023/06/01 06:16:31;;;;;;;;;;;;;;;26.34;42.90;98668.23;435996;1252;111558;-43
2023/06/01 06:26:37;;;;;;;;;;;;;;;26.73;41.54;98664.36;435841;1247;108034;-48
2023/06/01 06:36:42;;;;;;;;;;;;;;;27.02;40.41;98658.08;435675;1252;97925;-43
2023/06/01 06:46:48;;;;;;;;;;;;;;;27.08;39.86;98656.86;435950;1249;110379;-43
2023/06/01 06:56:53;;;;;;;;;;;;;;;27.34;39.17;98656.33;435852;1248;109507;-44
2023/06/01 07:07:00;;;;;;;;;;;;;;;27.40;38.64;98650.33;435891;1252;97887;-43
2023/06/01 07:17:06;;;;;;;;;;;;;;;27.46;38.17;98650.66;436507;1252;110561;-43
2023/06/01 07:27:12;;;;;;;;;;;;;;;27.47;37.30;98644.10;435975;1252;107325;-43
2023/06/01 07:47:25;;;;;;;;;;;;;;;27.46;36.22;98626.84;436039;1252;109503;-43
2023/06/01 07:57:34;;;;;;;;;;;;;;;27.54;35.61;98622.23;435867;1252;106727;-43
2023/06/01 08:07:42;;;;;;;;;;;;;;;27.77;35.27;98624.09;435946;1252;96636;-43
2023/06/01 08:17:48;;;;;;;;;;;;;;;27.78;34.61;98621.95;436003;1252;108177;-43
2023/06/01 08:27:55;;;;;;;;;;;;;;;27.64;34.01;98613.21;435813;1252;97958;-44
2023/06/01 08:37:59;;;;;;;;;;;;;;;27.45;33.91;98606.81;435752;1252;110965;-44
2023/06/01 08:58:10;;;;;;;;;;;;;;;28.27;33.28;98587.84;435724;1252;97873;-43
2023/06/01 09:18:22;;;;;;;;;;;;;;;28.09;32.36;98558.52;435832;1252;108722;-43
2023/06/01 09:28:28;;;;;;;;;;;;;;;28.11;31.78;98554.41;435714;1252;97867;-43
2023/06/01 09:38:34;;;;;;;;;;;;;;;27.96;32.01;98545.06;435772;1252;111717;-43
2023/06/01 09:48:40;;;;;;;;;;;;;;;27.65;31.26;98536.62;435762;1252;109429;-42
2023/06/01 09:58:45;;;;;;;;;;;;;;;27.98;32.10;98525.48;435947;1252;97725;-43
2023/06/01 10:08:52;;;;;;;;;;;;;;;27.98;31.28;98521.67;435704;1250;110864;-42
2023/06/01 10:18:58;;;;;;;;;;;;;;;28.12;31.81;98515.81;435551;1252;107873;-43
2023/06/01 10:29:04;;;;;;;;;;;;;;;28.33;31.81;98508.39;435757;1252;96626;-43
2023/06/01 10:39:28;;;;;;;;;;;;;;;28.24;31.47;98501.46;435697;1252;111170;-46
2023/06/01 10:49:47;;;;;;;;;;;;;;;28.21;31.66;98490.13;436526;1252;108478;-44
2023/06/01 11:00:11;;;;;;;;;;;;;;;28.18;31.43;98484.14;435664;1252;96627;-44
2023/06/01 11:10:31;;;;;;;;;;;;;;;28.11;31.57;98476.65;435640;1252;110496;-41
2023/06/01 11:20:39;;;;;;;;;;;;;;;28.11;31.68;98465.33;435630;1252;108826;-42
2023/06/01 11:30:45;;;;;;;;;;;;;;;28.40;31.38;98457.30;435535;1252;97491;-41
2023/06/01 11:40:59;;;;;;;;;;;;;;;28.39;30.89;98450.35;435685;1252;110087;-42
2023/06/01 11:51:06;;;;;;;;;;;;;;;28.39;30.61;98438.08;435756;1252;108145;-44
2023/06/01 12:01:12;;;;;;;;;;;;;;;28.30;30.63;98429.39;435727;1253;97893;-42
2023/06/01 12:11:19;;;;;;;;;;;;;;;28.13;30.57;98424.61;435529;1251;111681;-41
2023/06/01 12:21:28;;;;;;;;;;;;;;;28.33;30.68;98408.10;435649;1252;109580;-42
2023/06/01 12:31:33;;;;;;;;;;;;;;;28.38;30.16;98402.39;435726;1252;97868;-43
2023/06/01 12:41:47;;;;;;;;;;;;;;;28.23;30.04;98400.40;435634;1252;110580;-45
2023/06/01 12:51:52;;;;;;;;;;;;;;;27.88;29.83;98395.62;435778;1252;107485;-42
2023/06/01 13:01:58;;;;;;;;;;;;;;;27.83;29.64;98386.17;435635;1252;97489;-43
2023/06/01 13:32:12;;;;;;;;;;;;;;;27.79;29.53;98363.17;435786;1253;96589;-41
2023/06/01 13:42:16;;;;;;;;;;;;;;;27.51;29.67;98356.61;435798;1252;96640;-41
2023/06/01 14:02:29;;;;;;;;;;;;;;;27.40;29.60;98335.20;435910;1252;96615;-43
2023/06/01 14:22:40;;;;;;;;;;;;;;;27.29;29.64;98319.00;435711;1253;96949;-42
2023/06/01 14:32:46;;;;;;;;;;;;;;;27.16;29.43;98312.83;435838;1252;96587;-43
2023/06/01 14:42:52;;;;;;;;;;;;;;;26.86;29.03;98300.97;436583;1248;110926;-41
2023/06/01 15:03:03;;;;;;;;;;;;;;;26.80;29.21;98295.98;436509;1254;97492;-42
2023/06/01 15:13:09;;;;;;;;;;;;;;;26.67;28.79;98286.31;436327;1254;97535;-43
2023/06/01 15:23:16;;;;;;;;;;;;;;;26.43;28.55;98282.91;436355;1261;111091;-44
2023/06/01 15:33:21;;;;;;;;;;;;;;;26.37;28.34;98278.60;436132;1253;108611;-40
2023/06/01 15:43:27;;;;;;;;;;;;;;;26.22;28.16;98264.20;435778;1253;97856;-42
2023/06/01 16:03:35;;;;;;;;;;;;;;;26.11;28.47;98243.36;435766;1253;96664;-42
2023/06/01 16:13:41;;;;;;;;;;;;;;;25.85;28.12;98239.77;435898;1253;97245;-42
2023/06/01 16:23:46;;;;;;;;;;;;;;;25.56;28.24;98234.41;435880;1252;110469;-42
2023/06/01 16:33:52;;;;;;;;;;;;;;;25.36;28.46;98231.59;435996;1261;108327;-41
2023/06/01 16:43:58;;;;;;;;;;;;;;;25.22;28.87;98222.00;435933;1252;99123;-42
2023/06/01 17:04:09;;;;;;;;;;;;;;;24.81;29.68;98207.98;435935;1258;99204;-44
2023/06/01 17:14:15;;;;;;;;;;;;;;;24.45;30.14;98203.60;435935;1253;111402;-43
2023/06/01 17:24:20;;;;;;;;;;;;;;;24.19;30.98;98202.76;435947;1253;108629;-43
2023/06/01 17:34:26;;;;;;;;;;;;;;;23.92;31.62;98198.08;435982;1261;99246;-43
2023/06/01 17:44:32;;;;;;;;;;;;;;;23.60;32.35;98194.59;435890;1252;107769;-44
2023/06/01 17:54:38;;;;;;;;;;;;;;;23.33;33.21;98188.32;435898;1248;99221;-43
2023/06/01 18:04:43;;;;;;;;;;;;;;;23.04;33.51;98194.53;436087;1251;112360;-44
2023/06/01 18:14:49;;;;;;;;;;;;;;;22.71;34.09;98190.73;435861;1249;108210;-44
2023/06/01 18:24:55;;;;;;;;;;;;;;;22.33;34.72;98192.21;435904;1253;98888;-42
2023/06/01 18:35:01;;;;;;;;;;;;;;;21.93;35.72;98191.59;435953;1253;108662;-42
2023/06/01 18:45:07;;;;;;;;;;;;;;;21.46;36.52;98187.31;435952;1253;99249;-44
2023/06/01 18:55:13;;;;;;;;;;;;;;;21.01;37.33;98191.92;436057;1251;111050;-45
2023/06/01 19:05:19;;;;;;;;;;;;;;;20.51;38.11;98198.52;436137;1261;106946;-42
2023/06/01 19:15:26;;;;;;;;;;;;;;;20.06;38.89;98200.86;436165;1248;99183;-43
2023/06/01 19:25:31;;;;;;;;;;;;;;;19.64;39.65;98196.05;436105;1253;107632;-42
2023/06/01 19:35:38;;;;;;;;;;;;;;;19.34;40.31;98198.92;435833;1253;99237;-42
2023/06/01 19:45:44;;;;;;;;;;;;;;;19.17;40.86;98198.01;435964;1254;111863;-42
2023/06/01 19:55:51;;;;;;;;;;;;;;;18.86;41.70;98200.58;436205;1253;108160;-42
2023/06/01 20:05:57;;;;;;;;;;;;;;;18.56;42.38;98208.11;436040;1252;98107;-42
2023/06/01 20:16:03;;;;;;;;;;;;;;;18.18;43.50;98211.27;435821;1254;108713;-42
2023/06/01 20:26:09;;;;;;;;;;;;;;;17.81;43.97;98211.91;436254;1253;99218;-43
2023/06/01 20:36:15;;;;;;;;;;;;;;;17.39;44.45;98210.84;436152;1252;111692;-44
2023/06/01 20:46:24;;;;;;;;;;;;;;;17.22;45.12;98211.54;436237;1254;107324;-44
2023/06/01 20:56:29;;;;;;;;;;;;;;;17.14;45.22;98221.30;436184;1248;97960;-41
2023/06/01 21:06:35;;;;;;;;;;;;;;;16.93;45.47;98236.06;435970;1252;108852;-43
2023/06/01 21:16:41;;;;;;;;;;;;;;;16.64;45.86;98246.53;436142;1252;97983;-43
2023/06/01 21:36:52;;;;;;;;;;;;;;;16.38;46.72;98265.53;435958;1254;108417;-42
2023/06/01 21:46:58;;;;;;;;;;;;;;;16.25;47.40;98267.83;436005;1252;98723;-43
2023/06/01 22:07:11;;;;;;;;;;;;;;;15.81;48.78;98283.44;436161;1252;98039;-43
2023/06/01 22:17:15;;;;;;;;;;;;;;;15.48;49.36;98286.00;436290;1252;111625;-41
2023/06/01 22:27:21;;;;;;;;;;;;;;;15.21;50.14;98301.00;436077;1253;108278;-42
2023/06/01 22:37:27;;;;;;;;;;;;;;;15.02;50.99;98307.87;436171;1252;99266;-42
2023/06/01 22:47:33;;;;;;;;;;;;;;;14.80;51.58;98312.28;436224;1252;108228;-41
2023/06/01 22:57:38;;;;;;;;;;;;;;;14.52;52.26;98320.59;436129;1254;97989;-43
2023/06/01 23:07:45;;;;;;;;;;;;;;;14.34;52.75;98319.33;436145;1261;110948;-43
2023/06/01 23:27:57;;;;;;;;;;;;;;;13.96;53.36;98318.58;436112;1252;98358;-43
2023/06/01 23:38:02;;;;;;;;;;;;;;;13.98;53.72;98319.67;436075;1252;107224;-43
2023/06/01 23:48:09;;;;;;;;;;;;;;;13.99;54.09;98318.28;435932;1252;99208;-43
2023/06/01 23:58:15;;;;;;;;;;;;;;;14.05;54.44;98312.99;436205;1253;112251;-43
